• Join FlightAware (Why Join?)
  • Login
  • US Flag 
11:37AM EDT


 

Airport Tracker/Info


-or-


 

Live Flight TrackerFlight Track Log ✈ CSJ405 ✈ 09-May-2013 ✈ CYMX - KALB

Flight Track Log - Related Links

Times and Time Zones

All times are in EDT time to prevent confusion due to time zone crossing. See the CSJ405 flight status page for this flight to view local times or setup timezone preferences in your user account.

Time Position Orientation Groundspeed Altitude Reporting Facility
EDT Latitude Longitude Course Direction KTS MPH feet Rate Location/Type
04:56AM 45.6667 -73.9833 180° South 70 81 2,100  Level Montreal Center
04:57AM 45.6500 -73.9833 180° South 90 104 3,400 1,320 Climbing Montreal Center
04:58AM 45.6167 -73.9833 180° South 100 115 4,800 1,200 Climbing Montreal Center
04:59AM 45.5833 -73.9833 180° South 130 150 5,800 900 Climbing Montreal Center
05:00AM 45.4301 -74.0176 173° South  Level Estimated
05:00AM 45.5500 -73.9833 180° South 130 150 6,600  Level Montreal Center
05:01AM 45.3885 -74.0141 180° South  Level Estimated
05:01AM 45.5167 -73.9667 161° South 130 150 7,700  Level Montreal Center
05:02AM 45.4833 -73.9667 180° South 140 161 8,000 120 Climbing Montreal Center
05:03AM 45.4333 -73.9667 180° South 160 184 8,000  Level Montreal Center
05:04AM 45.3833 -73.9667 180° South 160 184 8,000  Level Montreal Center
05:05AM 45.3333 -73.9667 180° South 160 184 8,000  Level Montreal Center
05:06AM 45.3000 -73.9667 180° South 160 184 8,000  Level Montreal Center
05:07AM 45.2500 -73.9500 167° South 160 184 8,000  Level Montreal Center
05:08AM 45.2167 -73.9500 180° South 160 184 8,000  Level Montreal Center
05:09AM 45.1667 -73.9500 180° South 160 184 8,000  Level Montreal Center
05:10AM 45.1167 -73.9500 180° South 160 184 8,000  Level Montreal Center
05:11AM 45.0833 -73.9500 180° South 160 184 8,000  Level Montreal Center
05:12AM 45.0333 -73.9333 167° South 160 184 8,000  Level Montreal Center
05:13AM 44.9833 -73.9333 180° South 160 184 8,000  Level Montreal Center
05:14AM 44.9333 -73.9333 180° South 170 196 8,000  Level Montreal Center
05:15AM 44.9000 -73.9333 180° South 170 196 8,000  Level Montreal Center
05:16AM 44.8500 -73.9333 180° South 170 196 8,000  Level Montreal Center
05:17AM 44.8000 -73.9167 167° South 170 196 8,000  Level Montreal Center
05:17AM 44.8058 -73.9322 298° West 167 192 8,000  Level Boston Center
05:18AM 44.7456 -73.9278 177° South 174 200 8,000  Level Boston Center
05:19AM 44.6997 -73.9208 174° South 174 200 8,000  Level Boston Center
05:20AM 44.6456 -73.9164 177° South 174 200 8,000  Level Boston Center
05:21AM 44.6019 -73.9183 182° South 174 200 8,000  Level Boston Center
05:22AM 44.5581 -73.9142 176° South 169 194 8,000  Level Boston Center
05:23AM 44.5122 -73.9131 179° South 169 194 8,000  Level Boston Center
05:24AM 44.4644 -73.9089 176° South 164 189 8,000  Level Boston Center
05:25AM 44.4186 -73.9078 179° South 164 189 8,000  Level Boston Center
05:26AM 44.3750 -73.9039 176° South 164 189 8,000  Level Boston Center
05:27AM 44.3292 -73.9028 179° South 164 189 8,000  Level Boston Center
05:28AM 44.2833 -73.8986 176° South 164 189 8,000  Level Boston Center
05:29AM 44.2397 -73.8947 176° South 159 183 8,000  Level Boston Center
05:30AM 44.1981 -73.8936 179° South 159 183 8,000  Level Boston Center
05:31AM 44.1542 -73.8897 176° South 159 183 8,000  Level Boston Center
05:32AM 44.1083 -73.8886 179° South 159 183 8,000  Level Boston Center
05:33AM 44.0647 -73.8875 179° South 159 183 8,000  Level Boston Center
05:34AM 44.0211 -73.8836 176° South 164 189 8,000  Level Boston Center
05:35AM 43.9772 -73.8797 176° South 159 183 8,000  Level Boston Center
05:36AM 43.9336 -73.8758 176° South 159 183 8,000  Level Boston Center
05:37AM 43.8939 -73.8778 182° South 159 183 8,000  Level Boston Center
05:38AM 43.8481 -73.8708 174° South 159 183 8,000  Level Boston Center
05:39AM 43.8044 -73.8697 179° South 159 183 8,000  Level Boston Center
05:40AM 43.7544 -73.8658 177° South 164 189 8,000  Level Boston Center
05:41AM 43.7150 -73.8647 179° South 164 189 8,000  Level Boston Center
05:41AM 43.6983 -73.8644 179° South 157 181 8,000  Level Boston Center
05:42AM 43.6692 -73.8608 175° South 159 183 8,000  Level Boston Center
05:43AM 43.6544 -73.8633 187° South 159 183 8,000  Level Boston Center
05:43AM 43.6211 -73.8569 172° South 159 183 8,000  Level Boston Center
05:44AM 43.6003 -73.8592 184° South 165 190 8,000  Level Boston Center
05:44AM 43.5756 -73.8500 165° South 159 183 8,000  Level Boston Center
05:45AM 43.5525 -73.8553 189° South 167 192 8,000  Level Boston Center
05:45AM 43.5275 -73.8489 170° South 165 190 8,000  Level Boston Center
05:46AM 43.5108 -73.8514 186° South 167 192 8,000  Level Boston Center
05:46AM 43.4817 -73.8450 171° South 165 190 8,000  Level Boston Center
05:47AM 43.4669 -73.8503 195° South 165 190 8,000  Level Boston Center
05:47AM 43.4442 -73.8414 164° South 165 190 8,000  Level Boston Center
05:48AM 43.4192 -73.8464 188° South 166 191 8,000  Level Boston Center
05:48AM 43.3881 -73.8458 179° South 165 190 8,000  Level Boston Center
05:49AM 43.3756 -73.8456 179° South 163 188 8,000  Level Boston Center
05:49AM 43.3506 -73.8419 174° South 165 190 8,000 -240 Level Boston Center
05:50AM 43.3297 -73.8414 179° South 161 185 7,800 -540 Descending Boston Center
05:50AM 43.2983 -73.8381 176° South 165 190 7,500 -540 Descending Boston Center
05:51AM 43.2817 -73.8375 179° South 170 196 7,300 -420 Descending Boston Center
05:51AM 43.2567 -73.8369 179° South 165 190 7,100 -540 Descending Boston Center
05:52AM 43.2339 -73.8336 174° South 168 193 6,800 -720 Descending Boston Center
05:52AM 43.2047 -73.8244 167° South 171 197 6,400 -720 Descending Boston Center
05:53AM 43.1842 -73.8153 162° South 172 198 6,100 -600 Descending Boston Center
05:53AM 43.1592 -73.8064 165° South 177 204 5,800 -600 Descending Boston Center
05:54AM 43.1364 -73.8000 168° South 169 194 5,500 -540 Descending Boston Center
05:54AM 43.1197 -73.7939 165° South 177 204 5,300 -660 Descending Boston Center
05:55AM 43.0947 -73.7878 170° South 168 193 4,900 -600 Descending Boston Center
05:55AM 43.0678 -73.7786 166° South 172 198 4,700 -420 Descending Boston Center
05:56AM 43.0469 -73.7697 163° South 169 194 4,500 -540 Descending Boston Center
05:56AM 43.0283 -73.7636 167° South 172 198 4,200 -720 Descending Boston Center
05:57AM 43.0033 -73.7575 170° South 168 193 3,800 -660 Descending Boston Center
05:58AM 42.9578 -73.7450 169° South 167 192 3,300 -420 Descending Boston Center
05:59AM 42.9142 -73.7272 163° South 162 186 3,000 -300 Descending Boston Center
06:00AM 42.8703 -73.7319 185° South 158 182 2,800 -600 Descending Boston Center
06:01AM 42.8283 -73.7594 206° Southwest 170 196 1,900 -840 Descending Boston Center
06:02AM 42.7844 -73.7781 197° South 168 193 1,200 -720 Descending Boston Center
06:04AM 42.7491 -73.8020 180° South  Level Estimated
06:11AM 42.7491 -73.8020 180° South  Level Estimated
06:12AM 42.7491 -73.8020 180° South  Level Estimated
06:13AM 42.7491 -73.8020 180° South  Level Estimated